CW6344 Weather Reports


Display with metric or nautical units.
time (UTC)temp
F
wind
direction
speed
MPH
gust
MPH
rain 1hr
in
rain 24hr
in
rain mn
in
humidity
%
barometer
mb
20210307052811 33 88 0.0 0.0 0.00 0.00 0.00 72 1026.0
20210307051432 33 88 0.0 0.0 0.00 0.00 0.00 72 1026.0
20210307045656 34 88 0.0 0.0 0.00 0.00 0.00 72 1025.9
20210307042827 34 32 0.0 1.0 0.00 0.00 0.00 73 1025.8
20210307041434 34 15 0.0 1.0 0.00 0.00 0.00 73 1025.8
20210307040435 34 13 0.0 0.0 0.00 0.00 0.00 72 1025.9
20210307033448 34 13 0.0 0.0 0.00 0.00 0.00 72 1025.4
20210307033033 34 13 0.0 0.0 0.00 0.00 0.00 72 1025.4
20210307024446 35 13 0.0 0.0 0.00 0.00 0.00 66 1024.9
20210307020430 37 13 0.0 0.0 0.00 0.00 0.00 62 1024.3
20210307015925 38 13 0.0 0.0 0.00 0.00 0.00 60 1024.1
20210307011431 40 13 0.0 0.0 0.00 0.00 0.00 54 1023.5
20210307010429 40 13 0.0 0.0 0.00 0.00 0.00 52 1023.4
20210307004432 41 351 0.0 1.0 0.00 0.00 0.00 49 1023.2
20210307003430 41 344 1.0 3.0 0.00 0.00 0.00 49 1023.1
20210307001429 42 333 1.0 1.0 0.00 0.00 0.00 48 1022.8
20210306235948 42 5 0.0 2.0 0.00 0.00 0.00 48 1022.6
20210306234431 43 328 0.0 1.0 0.00 0.00 0.00 47 1022.5
20210306232846 43 316 0.0 3.0 0.00 0.00 0.00 45 1022.3
20210306231430 44 325 3.0 3.0 0.00 0.00 0.00 44 1022.2
20210306230433 44 338 1.0 3.0 0.00 0.00 0.00 43 1022.1
20210306223431 46 317 3.0 4.0 0.00 0.00 0.00 41 1021.7
20210306220430 46 317 1.0 4.0 0.00 0.00 0.00 40 1021.6
20210306215724 46 37 0.0 3.0 0.00 0.00 0.00 41 1021.5
20210306214427 46 339 0.0 2.0 0.00 0.00 0.00 41 1021.5
20210306212837 48 299 3.0 5.0 0.00 0.00 0.00 38 1021.5
20210306211428 48 317 1.0 5.0 0.00 0.00 0.00 38 1021.5
20210306210433 47 282 4.0 7.0 0.00 0.00 0.00 36 1021.4
20210306205704 47 321 7.0 7.0 0.00 0.00 0.00 36 1021.4
20210306202841 46 265 4.0 5.0 0.00 0.00 0.00 37 1021.3
20210306201430 46 35 0.0 6.0 0.00 0.00 0.00 38 1021.2
20210306195758 46 323 5.0 10.0 0.00 0.00 0.00 38 1021.4
20210306193425 46 316 7.0 7.0 0.00 0.00 0.00 38 1021.4
20210306191427 47 298 2.0 6.0 0.00 0.00 0.00 37 1021.4
20210306190427 47 294 3.0 9.0 0.00 0.00 0.00 38 1021.4
20210306185813 47 285 2.0 4.0 0.00 0.00 0.00 39 1021.5
20210306183426 46 212 3.0 9.0 0.00 0.00 0.00 38 1021.6
20210306182844 46 318 4.0 8.0 0.00 0.00 0.00 39 1021.7
20210306181427 46 254 3.0 12.0 0.00 0.00 0.00 38 1021.7
20210306180425 46 292 6.0 10.0 0.00 0.00 0.00 40 1021.7
20210306175836 46 219 2.0 8.0 0.00 0.00 0.00 39 1021.6
20210306173428 45 294 2.0 9.0 0.00 0.00 0.00 41 1021.8
20210306172902 44 319 2.0 8.0 0.00 0.00 0.00 40 1021.9
20210306170454 44 248 1.0 3.0 0.00 0.00 0.00 41 1022.0
20210306164427 44 173 1.0 2.0 0.00 0.00 0.00 42 1022.2
20210306162729 43 286 3.0 11.0 0.00 0.00 0.00 42 1022.4
20210306160423 43 294 2.0 7.0 0.00 0.00 0.00 42 1022.3
20210306155709 43 113 0.0 5.0 0.00 0.00 0.00 44 1022.3
20210306153423 42 292 2.0 5.0 0.00 0.00 0.00 45 1022.5
20210306152729 41 287 6.0 7.0 0.00 0.00 0.00 46 1022.6
20210306151427 41 317 6.0 8.0 0.00 0.00 0.00 46 1022.8
20210306150424 41 309 5.0 7.0 0.00 0.00 0.00 48 1022.9
20210306144426 40 332 5.0 8.0 0.00 0.00 0.00 47 1023.0
20210306143422 40 292 3.0 8.0 0.00 0.00 0.00 48 1023.0
20210306142751 40 310 3.0 6.0 0.00 0.00 0.00 49 1023.0
20210306141422 39 252 2.0 4.0 0.00 0.00 0.00 49 1023.1
20210306140426 39 257 4.0 5.0 0.00 0.00 0.00 51 1023.2
20210306132954 36 248 3.0 4.0 0.00 0.00 0.00 57 1023.2
20210306131423 35 266 0.0 0.0 0.00 0.00 0.00 58 1023.2
20210306125924 33 257 1.0 3.0 0.00 0.00 0.00 60 1022.9
20210306124422 32 254 0.0 1.0 0.00 0.00 0.00 61 1022.9
20210306123423 32 239 2.0 3.0 0.00 0.00 0.00 64 1022.7
20210306121421 30 262 0.0 1.0 0.00 0.00 0.00 65 1022.5
20210306120420 30 262 0.0 0.0 0.00 0.00 0.00 65 1022.4
20210306113727 30 262 0.0 2.0 0.00 0.00 0.00 65 1022.2
20210306113104 29 261 0.0 1.0 0.00 0.00 0.00 64 1022.1
20210306111422 29 259 0.0 0.0 0.00 0.00 0.00 63 1022.1
20210306105952 30 258 0.0 0.0 0.00 0.00 0.00 60 1022.0
20210306104421 30 258 0.0 1.0 0.00 0.00 0.00 59 1022.0
20210306102759 30 258 0.0 1.0 0.00 0.00 0.00 58 1021.9
20210306095919 31 259 0.0 0.0 0.00 0.00 0.00 55 1021.7
20210306094426 31 259 0.0 0.0 0.00 0.00 0.00 54 1021.5
20210306093420 32 259 0.0 0.0 0.00 0.00 0.00 54 1021.5
20210306092812 32 259 0.0 1.0 0.00 0.00 0.00 54 1021.6
20210306091418 32 259 0.0 2.0 0.00 0.00 0.00 54 1021.6
20210306090418 32 232 0.0 2.0 0.00 0.00 0.00 53 1021.5
20210306082906 34 284 0.0 1.0 0.00 0.00 0.00 50 1021.5
20210306081420 34 279 2.0 3.0 0.00 0.00 0.00 49 1021.5
20210306080418 34 296 0.0 3.0 0.00 0.00 0.00 49 1021.5
20210306075904 34 294 1.0 4.0 0.00 0.00 0.00 48 1021.5
20210306074416 35 291 0.0 7.0 0.00 0.00 0.00 48 1021.5
20210306073416 35 302 5.0 5.0 0.00 0.00 0.00 49 1021.6
20210306072910 35 302 4.0 7.0 0.00 0.00 0.00 48 1021.8
20210306071417 36 293 2.0 3.0 0.00 0.00 0.00 49 1022.0
20210306070418 36 311 6.0 6.0 0.00 0.00 0.00 48 1022.0
20210306065806 36 288 7.0 7.0 0.00 0.00 0.00 47 1021.8
20210306064417 36 308 3.0 10.0 0.00 0.00 0.00 47 1021.7
20210306053416 37 278 3.0 7.0 0.00 0.00 0.00 44 1020.7